sensor_id;sensor_type;location;lat;lon;timestamp;temperature;humidity
22288;DHT22;11312;51.464;6.968;2022-12-18T00:01:58;-6.70;99.90
22288;DHT22;11312;51.464;6.968;2022-12-18T00:04:25;-6.70;99.90
22288;DHT22;11312;51.464;6.968;2022-12-18T00:06:52;-6.80;99.90
22288;DHT22;11312;51.464;6.968;2022-12-18T00:09:18;-6.80;99.90
22288;DHT22;11312;51.464;6.968;2022-12-18T00:11:44;-6.90;99.90
22288;DHT22;11312;51.464;6.968;2022-12-18T00:14:11;-6.90;99.90
22288;DHT22;11312;51.464;6.968;2022-12-18T00:16:37;-6.90;99.90
22288;DHT22;11312;51.464;6.968;2022-12-18T00:19:03;-7.00;99.90
22288;DHT22;11312;51.464;6.968;2022-12-18T00:21:30;-7.00;99.90
22288;DHT22;11312;51.464;6.968;2022-12-18T00:23:56;-7.10;99.90
22288;DHT22;11312;51.464;6.968;2022-12-18T00:26:25;-7.00;99.90
22288;DHT22;11312;51.464;6.968;2022-12-18T00:28:52;-7.10;99.90
22288;DHT22;11312;51.464;6.968;2022-12-18T00:31:20;-7.10;99.90
22288;DHT22;11312;51.464;6.968;2022-12-18T00:33:46;-7.10;99.90
22288;DHT22;11312;51.464;6.968;2022-12-18T00:36:20;-7.00;99.90
22288;DHT22;11312;51.464;6.968;2022-12-18T00:38:46;-7.00;99.90
22288;DHT22;11312;51.464;6.968;2022-12-18T00:41:14;-7.00;99.90
22288;DHT22;11312;51.464;6.968;2022-12-18T00:44:00;-7.00;99.90
22288;DHT22;11312;51.464;6.968;2022-12-18T00:46:26;-7.00;99.90
22288;DHT22;11312;51.464;6.968;2022-12-18T00:48:51;-7.00;99.90
22288;DHT22;11312;51.464;6.968;2022-12-18T00:51:17;-7.10;99.90
22288;DHT22;11312;51.464;6.968;2022-12-18T00:53:42;-7.20;99.90
22288;DHT22;11312;51.464;6.968;2022-12-18T00:56:08;-7.10;99.90
22288;DHT22;11312;51.464;6.968;2022-12-18T00:58:34;-7.20;99.90
22288;DHT22;11312;51.464;6.968;2022-12-18T01:00:59;-7.20;99.90
22288;DHT22;11312;51.464;6.968;2022-12-18T01:03:25;-7.20;99.90
22288;DHT22;11312;51.464;6.968;2022-12-18T01:05:50;-7.20;99.90
22288;DHT22;11312;51.464;6.968;2022-12-18T01:08:16;-7.10;99.90
22288;DHT22;11312;51.464;6.968;2022-12-18T01:10:42;-7.10;99.90
22288;DHT22;11312;51.464;6.968;2022-12-18T01:13:07;-7.30;99.90
22288;DHT22;11312;51.464;6.968;2022-12-18T01:15:33;-7.30;99.90
22288;DHT22;11312;51.464;6.968;2022-12-18T01:17:58;-7.20;99.90
22288;DHT22;11312;51.464;6.968;2022-12-18T01:20:24;-7.20;99.90
22288;DHT22;11312;51.464;6.968;2022-12-18T01:22:50;-7.30;99.90
22288;DHT22;11312;51.464;6.968;2022-12-18T01:25:15;-7.30;99.90
22288;DHT22;11312;51.464;6.968;2022-12-18T01:27:41;-7.30;99.90
22288;DHT22;11312;51.464;6.968;2022-12-18T01:30:07;-7.30;99.90
22288;DHT22;11312;51.464;6.968;2022-12-18T01:32:33;-7.30;99.90
22288;DHT22;11312;51.464;6.968;2022-12-18T01:34:59;-7.30;99.90
22288;DHT22;11312;51.464;6.968;2022-12-18T01:37:24;-7.30;99.90
22288;DHT22;11312;51.464;6.968;2022-12-18T01:39:50;-7.20;99.90
22288;DHT22;11312;51.464;6.968;2022-12-18T01:42:17;-7.20;99.90
22288;DHT22;11312;51.464;6.968;2022-12-18T01:47:37;-7.30;99.90
22288;DHT22;11312;51.464;6.968;2022-12-18T01:50:16;-7.40;99.90
22288;DHT22;11312;51.464;6.968;2022-12-18T01:52:45;-7.30;99.90
22288;DHT22;11312;51.464;6.968;2022-12-18T01:55:12;-7.40;99.90
22288;DHT22;11312;51.464;6.968;2022-12-18T01:57:40;-7.60;99.90
22288;DHT22;11312;51.464;6.968;2022-12-18T02:00:13;-7.50;99.90
22288;DHT22;11312;51.464;6.968;2022-12-18T02:02:41;-7.40;99.90
22288;DHT22;11312;51.464;6.968;2022-12-18T02:05:07;-7.40;99.90
22288;DHT22;11312;51.464;6.968;2022-12-18T02:08:01;-7.40;99.90
22288;DHT22;11312;51.464;6.968;2022-12-18T02:10:45;-7.40;99.90
22288;DHT22;11312;51.464;6.968;2022-12-18T02:13:18;-7.40;99.90
22288;DHT22;11312;51.464;6.968;2022-12-18T02:19:02;-7.30;99.90
22288;DHT22;11312;51.464;6.968;2022-12-18T02:26:47;-7.60;99.90
22288;DHT22;11312;51.464;6.968;2022-12-18T02:29:42;-7.70;99.90
22288;DHT22;11312;51.464;6.968;2022-12-18T02:32:13;-7.70;99.90
22288;DHT22;11312;51.464;6.968;2022-12-18T02:34:41;-7.60;99.90
22288;DHT22;11312;51.464;6.968;2022-12-18T02:37:10;-7.50;99.90
22288;DHT22;11312;51.464;6.968;2022-12-18T02:39:39;-7.60;99.90
22288;DHT22;11312;51.464;6.968;2022-12-18T02:42:05;-7.60;99.90
22288;DHT22;11312;51.464;6.968;2022-12-18T02:44:48;-7.70;99.90
22288;DHT22;11312;51.464;6.968;2022-12-18T02:47:17;-7.70;99.90
22288;DHT22;11312;51.464;6.968;2022-12-18T02:52:44;-7.70;99.90
22288;DHT22;11312;51.464;6.968;2022-12-18T02:55:35;-7.60;99.90
22288;DHT22;11312;51.464;6.968;2022-12-18T03:00:41;-7.50;99.90
22288;DHT22;11312;51.464;6.968;2022-12-18T03:05:50;-7.60;99.90
22288;DHT22;11312;51.464;6.968;2022-12-18T03:10:51;-7.70;99.90
22288;DHT22;11312;51.464;6.968;2022-12-18T03:13:40;-7.70;99.90
22288;DHT22;11312;51.464;6.968;2022-12-18T03:16:11;-7.60;99.90
22288;DHT22;11312;51.464;6.968;2022-12-18T03:21:07;-7.60;99.90
22288;DHT22;11312;51.464;6.968;2022-12-18T03:23:39;-7.60;99.90
22288;DHT22;11312;51.464;6.968;2022-12-18T03:26:08;-7.50;99.90
22288;DHT22;11312;51.464;6.968;2022-12-18T03:28:43;-7.50;99.90
22288;DHT22;11312;51.464;6.968;2022-12-18T03:31:12;-7.60;99.90
22288;DHT22;11312;51.464;6.968;2022-12-18T03:33:52;-7.60;99.90
22288;DHT22;11312;51.464;6.968;2022-12-18T03:36:19;-7.70;99.90
22288;DHT22;11312;51.464;6.968;2022-12-18T03:38:44;-7.70;99.90
22288;DHT22;11312;51.464;6.968;2022-12-18T03:41:14;-7.70;99.90
22288;DHT22;11312;51.464;6.968;2022-12-18T03:43:53;-7.70;99.90
22288;DHT22;11312;51.464;6.968;2022-12-18T03:46:33;-7.70;99.90
22288;DHT22;11312;51.464;6.968;2022-12-18T03:49:12;-7.70;99.90
22288;DHT22;11312;51.464;6.968;2022-12-18T03:52:07;-7.70;99.90
22288;DHT22;11312;51.464;6.968;2022-12-18T03:54:35;-7.70;99.90
22288;DHT22;11312;51.464;6.968;2022-12-18T03:57:07;-7.70;99.90
22288;DHT22;11312;51.464;6.968;2022-12-18T03:59:35;-7.70;99.90
22288;DHT22;11312;51.464;6.968;2022-12-18T04:02:04;-7.70;99.90
22288;DHT22;11312;51.464;6.968;2022-12-18T04:04:31;-7.70;99.90
22288;DHT22;11312;51.464;6.968;2022-12-18T04:06:58;-7.60;99.90
22288;DHT22;11312;51.464;6.968;2022-12-18T04:09:24;-7.90;99.90
22288;DHT22;11312;51.464;6.968;2022-12-18T04:11:51;-7.90;99.90
22288;DHT22;11312;51.464;6.968;2022-12-18T04:14:17;-7.90;99.90
22288;DHT22;11312;51.464;6.968;2022-12-18T04:16:43;-7.90;99.90
22288;DHT22;11312;51.464;6.968;2022-12-18T04:19:08;-7.80;99.90
22288;DHT22;11312;51.464;6.968;2022-12-18T04:21:34;-7.90;99.90
22288;DHT22;11312;51.464;6.968;2022-12-18T04:23:59;-7.80;99.90
22288;DHT22;11312;51.464;6.968;2022-12-18T04:26:25;-7.80;99.90
22288;DHT22;11312;51.464;6.968;2022-12-18T04:28:51;-7.80;99.90
22288;DHT22;11312;51.464;6.968;2022-12-18T04:31:16;-7.70;99.90
22288;DHT22;11312;51.464;6.968;2022-12-18T04:33:42;-7.70;99.90
22288;DHT22;11312;51.464;6.968;2022-12-18T04:36:07;-7.80;99.90
22288;DHT22;11312;51.464;6.968;2022-12-18T04:38:33;-7.80;99.90
22288;DHT22;11312;51.464;6.968;2022-12-18T04:40:58;-7.80;99.90
22288;DHT22;11312;51.464;6.968;2022-12-18T04:43:24;-7.80;99.90
22288;DHT22;11312;51.464;6.968;2022-12-18T04:45:50;-7.80;99.90
22288;DHT22;11312;51.464;6.968;2022-12-18T04:48:15;-7.80;99.90
22288;DHT22;11312;51.464;6.968;2022-12-18T04:50:41;-7.90;99.90
22288;DHT22;11312;51.464;6.968;2022-12-18T04:53:07;-7.90;99.90
22288;DHT22;11312;51.464;6.968;2022-12-18T04:55:32;-7.90;99.90
22288;DHT22;11312;51.464;6.968;2022-12-18T04:57:58;-7.90;99.90
22288;DHT22;11312;51.464;6.968;2022-12-18T05:00:23;-7.90;99.90
22288;DHT22;11312;51.464;6.968;2022-12-18T05:02:49;-7.80;99.90
22288;DHT22;11312;51.464;6.968;2022-12-18T05:05:15;-8.00;99.90
22288;DHT22;11312;51.464;6.968;2022-12-18T05:07:40;-8.00;99.90
22288;DHT22;11312;51.464;6.968;2022-12-18T05:10:07;-7.90;99.90
22288;DHT22;11312;51.464;6.968;2022-12-18T05:12:32;-7.80;99.90
22288;DHT22;11312;51.464;6.968;2022-12-18T05:14:58;-7.80;99.90
22288;DHT22;11312;51.464;6.968;2022-12-18T05:17:24;-7.90;99.90
22288;DHT22;11312;51.464;6.968;2022-12-18T05:19:49;-7.90;99.90
22288;DHT22;11312;51.464;6.968;2022-12-18T05:22:15;-7.90;99.90
22288;DHT22;11312;51.464;6.968;2022-12-18T05:24:40;-7.90;99.90
22288;DHT22;11312;51.464;6.968;2022-12-18T05:27:06;-8.00;99.90
22288;DHT22;11312;51.464;6.968;2022-12-18T05:29:32;-7.90;99.90
22288;DHT22;11312;51.464;6.968;2022-12-18T05:31:57;-7.90;99.90
22288;DHT22;11312;51.464;6.968;2022-12-18T05:34:23;-7.90;99.90
22288;DHT22;11312;51.464;6.968;2022-12-18T05:36:48;-8.10;99.90
22288;DHT22;11312;51.464;6.968;2022-12-18T05:39:14;-8.00;99.90
22288;DHT22;11312;51.464;6.968;2022-12-18T05:41:40;-8.00;99.90
22288;DHT22;11312;51.464;6.968;2022-12-18T05:44:05;-8.00;99.90
22288;DHT22;11312;51.464;6.968;2022-12-18T05:46:31;-8.00;99.90
22288;DHT22;11312;51.464;6.968;2022-12-18T05:48:59;-8.00;99.90
22288;DHT22;11312;51.464;6.968;2022-12-18T05:51:26;-8.00;99.90
22288;DHT22;11312;51.464;6.968;2022-12-18T05:53:52;-8.10;99.90
22288;DHT22;11312;51.464;6.968;2022-12-18T05:56:20;-8.20;99.90
22288;DHT22;11312;51.464;6.968;2022-12-18T05:58:46;-8.10;99.90
22288;DHT22;11312;51.464;6.968;2022-12-18T06:01:18;-8.10;99.90
22288;DHT22;11312;51.464;6.968;2022-12-18T06:03:44;-8.10;99.90
22288;DHT22;11312;51.464;6.968;2022-12-18T06:06:19;-8.00;99.90
22288;DHT22;11312;51.464;6.968;2022-12-18T06:08:46;-8.10;99.90
22288;DHT22;11312;51.464;6.968;2022-12-18T06:11:12;-8.10;99.90
22288;DHT22;11312;51.464;6.968;2022-12-18T06:13:38;-8.00;99.90
22288;DHT22;11312;51.464;6.968;2022-12-18T06:16:05;-8.00;99.90
22288;DHT22;11312;51.464;6.968;2022-12-18T06:18:31;-8.00;99.90
22288;DHT22;11312;51.464;6.968;2022-12-18T06:20:58;-7.90;99.90
22288;DHT22;11312;51.464;6.968;2022-12-18T06:23:24;-8.00;99.90
22288;DHT22;11312;51.464;6.968;2022-12-18T06:25:50;-8.10;99.90
22288;DHT22;11312;51.464;6.968;2022-12-18T06:28:15;-8.10;99.90
22288;DHT22;11312;51.464;6.968;2022-12-18T06:30:44;-8.10;99.90
22288;DHT22;11312;51.464;6.968;2022-12-18T06:33:09;-8.20;99.90
22288;DHT22;11312;51.464;6.968;2022-12-18T06:35:35;-8.20;99.90
22288;DHT22;11312;51.464;6.968;2022-12-18T06:38:02;-8.10;99.90
22288;DHT22;11312;51.464;6.968;2022-12-18T06:40:28;-8.10;99.90
22288;DHT22;11312;51.464;6.968;2022-12-18T06:42:53;-8.10;99.90
22288;DHT22;11312;51.464;6.968;2022-12-18T06:45:19;-7.90;99.90
22288;DHT22;11312;51.464;6.968;2022-12-18T06:47:45;-8.00;99.90
22288;DHT22;11312;51.464;6.968;2022-12-18T06:50:11;-8.00;99.90
22288;DHT22;11312;51.464;6.968;2022-12-18T06:52:36;-8.10;99.90
22288;DHT22;11312;51.464;6.968;2022-12-18T06:55:02;-8.20;99.90
22288;DHT22;11312;51.464;6.968;2022-12-18T06:57:28;-8.10;99.90
22288;DHT22;11312;51.464;6.968;2022-12-18T06:59:54;-8.20;99.90
22288;DHT22;11312;51.464;6.968;2022-12-18T07:02:19;-8.20;99.90
22288;DHT22;11312;51.464;6.968;2022-12-18T07:04:45;-8.20;99.90
22288;DHT22;11312;51.464;6.968;2022-12-18T07:07:11;-8.20;99.90
22288;DHT22;11312;51.464;6.968;2022-12-18T07:09:36;-8.20;99.90
22288;DHT22;11312;51.464;6.968;2022-12-18T07:12:02;-8.20;99.90
22288;DHT22;11312;51.464;6.968;2022-12-18T07:14:28;-8.30;99.90
22288;DHT22;11312;51.464;6.968;2022-12-18T07:16:53;-8.20;99.90
22288;DHT22;11312;51.464;6.968;2022-12-18T07:19:19;-8.20;99.90
22288;DHT22;11312;51.464;6.968;2022-12-18T07:21:44;-8.20;99.90
22288;DHT22;11312;51.464;6.968;2022-12-18T07:24:10;-8.30;99.90
22288;DHT22;11312;51.464;6.968;2022-12-18T07:26:36;-8.20;99.90
22288;DHT22;11312;51.464;6.968;2022-12-18T07:29:01;-8.20;99.90
22288;DHT22;11312;51.464;6.968;2022-12-18T07:31:27;-8.10;99.90
22288;DHT22;11312;51.464;6.968;2022-12-18T07:33:53;-8.00;99.90
22288;DHT22;11312;51.464;6.968;2022-12-18T07:36:19;-8.00;99.90
22288;DHT22;11312;51.464;6.968;2022-12-18T07:38:47;-8.10;99.90
22288;DHT22;11312;51.464;6.968;2022-12-18T07:41:13;-8.10;99.90
22288;DHT22;11312;51.464;6.968;2022-12-18T07:43:40;-7.90;99.90
22288;DHT22;11312;51.464;6.968;2022-12-18T07:46:07;-8.00;99.90
22288;DHT22;11312;51.464;6.968;2022-12-18T07:48:33;-8.00;99.90
22288;DHT22;11312;51.464;6.968;2022-12-18T07:51:00;-7.90;99.90
22288;DHT22;11312;51.464;6.968;2022-12-18T07:53:26;-7.80;99.90
22288;DHT22;11312;51.464;6.968;2022-12-18T07:56:00;-7.80;99.90
22288;DHT22;11312;51.464;6.968;2022-12-18T07:58:26;-7.70;99.90
22288;DHT22;11312;51.464;6.968;2022-12-18T08:00:52;-7.70;99.90
22288;DHT22;11312;51.464;6.968;2022-12-18T08:03:18;-7.70;99.90
22288;DHT22;11312;51.464;6.968;2022-12-18T08:05:43;-7.60;99.90
22288;DHT22;11312;51.464;6.968;2022-12-18T08:08:09;-7.50;99.90
22288;DHT22;11312;51.464;6.968;2022-12-18T08:10:34;-7.40;99.90
22288;DHT22;11312;51.464;6.968;2022-12-18T08:13:00;-7.20;99.90
22288;DHT22;11312;51.464;6.968;2022-12-18T08:15:26;-7.30;99.90
22288;DHT22;11312;51.464;6.968;2022-12-18T08:17:51;-7.20;99.90
22288;DHT22;11312;51.464;6.968;2022-12-18T08:20:17;-7.20;99.90
22288;DHT22;11312;51.464;6.968;2022-12-18T08:22:44;-7.10;99.90
22288;DHT22;11312;51.464;6.968;2022-12-18T08:25:10;-7.00;99.90
22288;DHT22;11312;51.464;6.968;2022-12-18T08:27:36;-6.90;99.90
22288;DHT22;11312;51.464;6.968;2022-12-18T08:30:03;-6.90;99.90
22288;DHT22;11312;51.464;6.968;2022-12-18T08:32:29;-6.90;99.90
22288;DHT22;11312;51.464;6.968;2022-12-18T08:34:54;-6.70;99.90
22288;DHT22;11312;51.464;6.968;2022-12-18T08:37:20;-6.70;99.90
22288;DHT22;11312;51.464;6.968;2022-12-18T08:39:45;-6.50;99.90
22288;DHT22;11312;51.464;6.968;2022-12-18T08:42:11;-6.60;99.90
22288;DHT22;11312;51.464;6.968;2022-12-18T08:44:56;-6.50;99.90
22288;DHT22;11312;51.464;6.968;2022-12-18T08:47:21;-6.30;99.90
22288;DHT22;11312;51.464;6.968;2022-12-18T08:49:47;-6.20;99.90
22288;DHT22;11312;51.464;6.968;2022-12-18T08:52:12;-6.10;99.90
22288;DHT22;11312;51.464;6.968;2022-12-18T08:54:38;-5.90;99.90
22288;DHT22;11312;51.464;6.968;2022-12-18T08:57:03;-5.80;99.90
22288;DHT22;11312;51.464;6.968;2022-12-18T08:59:29;-5.70;99.90
22288;DHT22;11312;51.464;6.968;2022-12-18T09:01:55;-5.50;99.90
22288;DHT22;11312;51.464;6.968;2022-12-18T09:04:21;-5.50;99.90
22288;DHT22;11312;51.464;6.968;2022-12-18T09:06:46;-5.30;99.90
22288;DHT22;11312;51.464;6.968;2022-12-18T09:09:12;-5.30;99.90
22288;DHT22;11312;51.464;6.968;2022-12-18T09:11:38;-5.20;99.90
22288;DHT22;11312;51.464;6.968;2022-12-18T09:14:04;-5.10;99.90
22288;DHT22;11312;51.464;6.968;2022-12-18T09:16:30;-4.60;99.90
22288;DHT22;11312;51.464;6.968;2022-12-18T09:18:57;-4.60;99.90
22288;DHT22;11312;51.464;6.968;2022-12-18T09:21:29;-4.40;99.90
22288;DHT22;11312;51.464;6.968;2022-12-18T09:23:55;-4.10;99.90
22288;DHT22;11312;51.464;6.968;2022-12-18T09:26:22;-4.20;99.90
22288;DHT22;11312;51.464;6.968;2022-12-18T09:28:48;-2.80;99.90
22288;DHT22;11312;51.464;6.968;2022-12-18T09:31:14;-3.00;99.90
22288;DHT22;11312;51.464;6.968;2022-12-18T09:33:40;-2.00;99.90
22288;DHT22;11312;51.464;6.968;2022-12-18T09:36:09;-1.90;99.90
22288;DHT22;11312;51.464;6.968;2022-12-18T09:38:35;-2.00;99.90
22288;DHT22;11312;51.464;6.968;2022-12-18T09:44:35;-2.00;99.90
22288;DHT22;11312;51.464;6.968;2022-12-18T09:47:35;-1.80;99.90
22288;DHT22;11312;51.464;6.968;2022-12-18T09:50:05;-1.80;99.90
22288;DHT22;11312;51.464;6.968;2022-12-18T09:52:44;-1.80;99.90
22288;DHT22;11312;51.464;6.968;2022-12-18T09:55:43;-1.90;99.90
22288;DHT22;11312;51.464;6.968;2022-12-18T10:00:35;-1.80;99.90
22288;DHT22;11312;51.464;6.968;2022-12-18T10:03:11;-1.80;99.90
22288;DHT22;11312;51.464;6.968;2022-12-18T10:05:53;-1.70;99.90
22288;DHT22;11312;51.464;6.968;2022-12-18T10:11:20;-1.60;99.90
22288;DHT22;11312;51.464;6.968;2022-12-18T10:13:53;-0.70;99.90
22288;DHT22;11312;51.464;6.968;2022-12-18T10:27:14;-1.00;99.90
22288;DHT22;11312;51.464;6.968;2022-12-18T10:29:42;-1.00;99.90
22288;DHT22;11312;51.464;6.968;2022-12-18T10:32:17;-0.90;99.90
22288;DHT22;11312;51.464;6.968;2022-12-18T10:34:48;-0.80;99.90
22288;DHT22;11312;51.464;6.968;2022-12-18T10:37:19;-0.70;99.90
22288;DHT22;11312;51.464;6.968;2022-12-18T10:42:29;-0.60;99.90
22288;DHT22;11312;51.464;6.968;2022-12-18T10:45:13;-0.50;99.90
22288;DHT22;11312;51.464;6.968;2022-12-18T10:47:43;-0.30;99.90
22288;DHT22;11312;51.464;6.968;2022-12-18T10:50:34;-0.30;99.90
22288;DHT22;11312;51.464;6.968;2022-12-18T10:53:03;-0.10;99.90
22288;DHT22;11312;51.464;6.968;2022-12-18T10:55:35;-0.10;99.90
22288;DHT22;11312;51.464;6.968;2022-12-18T10:58:28;0.00;99.90
22288;DHT22;11312;51.464;6.968;2022-12-18T11:01:15;0.00;99.90
22288;DHT22;11312;51.464;6.968;2022-12-18T11:03:45;-0.10;99.90
22288;DHT22;11312;51.464;6.968;2022-12-18T11:06:13;-0.10;99.90
22288;DHT22;11312;51.464;6.968;2022-12-18T11:08:41;-0.10;99.90
22288;DHT22;11312;51.464;6.968;2022-12-18T11:11:24;-0.20;99.90
22288;DHT22;11312;51.464;6.968;2022-12-18T11:14:02;-0.20;99.90
22288;DHT22;11312;51.464;6.968;2022-12-18T11:16:32;-0.10;99.90
22288;DHT22;11312;51.464;6.968;2022-12-18T11:21:48;0.10;99.90
22288;DHT22;11312;51.464;6.968;2022-12-18T11:24:22;0.10;99.90
22288;DHT22;11312;51.464;6.968;2022-12-18T11:26:49;0.10;99.90
22288;DHT22;11312;51.464;6.968;2022-12-18T11:29:22;0.10;99.90
22288;DHT22;11312;51.464;6.968;2022-12-18T11:31:48;0.20;99.90
22288;DHT22;11312;51.464;6.968;2022-12-18T11:34:23;0.30;99.90
22288;DHT22;11312;51.464;6.968;2022-12-18T11:36:52;0.40;99.90
22288;DHT22;11312;51.464;6.968;2022-12-18T11:42:08;0.40;99.90
22288;DHT22;11312;51.464;6.968;2022-12-18T11:44:50;0.30;99.90
22288;DHT22;11312;51.464;6.968;2022-12-18T11:49:55;0.30;99.90
22288;DHT22;11312;51.464;6.968;2022-12-18T11:54:56;0.30;99.90
22288;DHT22;11312;51.464;6.968;2022-12-18T12:13:27;0.60;99.90
22288;DHT22;11312;51.464;6.968;2022-12-18T12:16:03;0.60;99.90
22288;DHT22;11312;51.464;6.968;2022-12-18T12:21:40;0.70;99.90
22288;DHT22;11312;51.464;6.968;2022-12-18T12:24:26;0.60;99.90
22288;DHT22;11312;51.464;6.968;2022-12-18T12:40:42;0.60;99.90
22288;DHT22;11312;51.464;6.968;2022-12-18T12:43:35;0.70;99.90
22288;DHT22;11312;51.464;6.968;2022-12-18T12:46:11;0.70;99.90
22288;DHT22;11312;51.464;6.968;2022-12-18T12:48:52;0.70;99.90
22288;DHT22;11312;51.464;6.968;2022-12-18T12:51:22;0.60;99.90
22288;DHT22;11312;51.464;6.968;2022-12-18T12:53:49;0.60;99.90
22288;DHT22;11312;51.464;6.968;2022-12-18T12:56:17;0.60;99.90
22288;DHT22;11312;51.464;6.968;2022-12-18T13:01:36;0.60;99.90
22288;DHT22;11312;51.464;6.968;2022-12-18T13:09:33;0.50;99.90
22288;DHT22;11312;51.464;6.968;2022-12-18T13:12:11;0.50;99.90
22288;DHT22;11312;51.464;6.968;2022-12-18T13:15:21;0.60;99.90
22288;DHT22;11312;51.464;6.968;2022-12-18T13:17:48;1.10;99.90
22288;DHT22;11312;51.464;6.968;2022-12-18T13:20:15;1.80;99.90
22288;DHT22;11312;51.464;6.968;2022-12-18T13:22:48;2.10;99.90
22288;DHT22;11312;51.464;6.968;2022-12-18T13:25:37;2.00;99.90
22288;DHT22;11312;51.464;6.968;2022-12-18T13:28:15;2.00;99.90
22288;DHT22;11312;51.464;6.968;2022-12-18T13:30:49;2.00;99.90
22288;DHT22;11312;51.464;6.968;2022-12-18T13:43:41;2.30;99.90
22288;DHT22;11312;51.464;6.968;2022-12-18T13:51:40;2.50;99.90
22288;DHT22;11312;51.464;6.968;2022-12-18T13:54:19;2.40;99.90
22288;DHT22;11312;51.464;6.968;2022-12-18T13:56:46;2.20;99.90
22288;DHT22;11312;51.464;6.968;2022-12-18T13:59:19;2.10;99.90
22288;DHT22;11312;51.464;6.968;2022-12-18T14:02:00;2.20;99.90
22288;DHT22;11312;51.464;6.968;2022-12-18T14:04:31;2.30;99.90
22288;DHT22;11312;51.464;6.968;2022-12-18T14:07:02;2.30;99.90
22288;DHT22;11312;51.464;6.968;2022-12-18T14:09:31;2.30;99.90
22288;DHT22;11312;51.464;6.968;2022-12-18T14:12:00;2.20;99.90
22288;DHT22;11312;51.464;6.968;2022-12-18T14:14:47;2.40;99.90
22288;DHT22;11312;51.464;6.968;2022-12-18T14:17:15;2.40;99.90
22288;DHT22;11312;51.464;6.968;2022-12-18T14:19:46;2.40;99.90
22288;DHT22;11312;51.464;6.968;2022-12-18T14:22:19;2.30;99.90
22288;DHT22;11312;51.464;6.968;2022-12-18T14:24:46;2.30;99.90
22288;DHT22;11312;51.464;6.968;2022-12-18T14:27:25;2.30;99.90
22288;DHT22;11312;51.464;6.968;2022-12-18T14:29:51;2.30;99.90
22288;DHT22;11312;51.464;6.968;2022-12-18T14:32:19;2.10;99.90
22288;DHT22;11312;51.464;6.968;2022-12-18T14:34:52;2.10;99.90
22288;DHT22;11312;51.464;6.968;2022-12-18T14:37:23;2.10;99.90
22288;DHT22;11312;51.464;6.968;2022-12-18T14:39:57;2.10;99.90
22288;DHT22;11312;51.464;6.968;2022-12-18T14:42:24;2.10;99.90
22288;DHT22;11312;51.464;6.968;2022-12-18T14:47:57;1.90;99.90
22288;DHT22;11312;51.464;6.968;2022-12-18T14:50:23;2.10;99.90
22288;DHT22;11312;51.464;6.968;2022-12-18T14:52:49;2.20;99.90
22288;DHT22;11312;51.464;6.968;2022-12-18T14:55:17;2.20;99.90
22288;DHT22;11312;51.464;6.968;2022-12-18T14:57:44;2.30;99.90
22288;DHT22;11312;51.464;6.968;2022-12-18T15:00:18;2.30;99.90
22288;DHT22;11312;51.464;6.968;2022-12-18T15:02:47;2.30;99.90
22288;DHT22;11312;51.464;6.968;2022-12-18T15:07:43;2.20;99.90
22288;DHT22;11312;51.464;6.968;2022-12-18T15:10:15;2.30;99.90
22288;DHT22;11312;51.464;6.968;2022-12-18T15:18:03;2.10;99.90
22288;DHT22;11312;51.464;6.968;2022-12-18T15:20:38;2.20;99.90
22288;DHT22;11312;51.464;6.968;2022-12-18T15:23:05;2.20;99.90
22288;DHT22;11312;51.464;6.968;2022-12-18T15:25:36;2.30;99.90
22288;DHT22;11312;51.464;6.968;2022-12-18T15:28:04;2.20;99.90
22288;DHT22;11312;51.464;6.968;2022-12-18T15:31:04;2.30;99.90
22288;DHT22;11312;51.464;6.968;2022-12-18T15:33:33;2.30;99.90
22288;DHT22;11312;51.464;6.968;2022-12-18T15:36:01;2.30;99.90
22288;DHT22;11312;51.464;6.968;2022-12-18T15:38:27;2.40;99.90
22288;DHT22;11312;51.464;6.968;2022-12-18T15:40:53;2.20;99.90
22288;DHT22;11312;51.464;6.968;2022-12-18T15:43:23;2.20;99.90
22288;DHT22;11312;51.464;6.968;2022-12-18T15:46:20;2.20;99.90
22288;DHT22;11312;51.464;6.968;2022-12-18T15:48:51;2.20;99.90
22288;DHT22;11312;51.464;6.968;2022-12-18T15:51:35;2.10;99.90
22288;DHT22;11312;51.464;6.968;2022-12-18T15:54:03;2.00;99.90
22288;DHT22;11312;51.464;6.968;2022-12-18T15:56:30;2.10;99.90
22288;DHT22;11312;51.464;6.968;2022-12-18T15:59:16;2.10;99.90
22288;DHT22;11312;51.464;6.968;2022-12-18T16:01:45;1.80;99.90
22288;DHT22;11312;51.464;6.968;2022-12-18T16:04:13;1.70;99.90
22288;DHT22;11312;51.464;6.968;2022-12-18T16:06:39;1.80;99.90
22288;DHT22;11312;51.464;6.968;2022-12-18T16:09:06;1.80;99.90
22288;DHT22;11312;51.464;6.968;2022-12-18T16:11:33;1.60;99.90
22288;DHT22;11312;51.464;6.968;2022-12-18T16:16:47;1.50;99.90
22288;DHT22;11312;51.464;6.968;2022-12-18T16:19:13;1.50;99.90
22288;DHT22;11312;51.464;6.968;2022-12-18T16:21:39;1.60;99.90
22288;DHT22;11312;51.464;6.968;2022-12-18T16:24:05;1.80;99.90
22288;DHT22;11312;51.464;6.968;2022-12-18T16:26:31;1.70;99.90
22288;DHT22;11312;51.464;6.968;2022-12-18T16:28:56;1.80;99.90
22288;DHT22;11312;51.464;6.968;2022-12-18T16:31:22;1.70;99.90
22288;DHT22;11312;51.464;6.968;2022-12-18T16:33:48;1.80;99.90
22288;DHT22;11312;51.464;6.968;2022-12-18T16:36:14;1.70;99.90
22288;DHT22;11312;51.464;6.968;2022-12-18T16:38:39;1.70;99.90
22288;DHT22;11312;51.464;6.968;2022-12-18T16:41:18;1.80;99.90
22288;DHT22;11312;51.464;6.968;2022-12-18T16:43:56;1.80;99.90
22288;DHT22;11312;51.464;6.968;2022-12-18T16:46:22;1.80;99.90
22288;DHT22;11312;51.464;6.968;2022-12-18T16:48:48;1.80;99.90
22288;DHT22;11312;51.464;6.968;2022-12-18T16:51:14;1.70;99.90
22288;DHT22;11312;51.464;6.968;2022-12-18T16:53:40;1.70;99.90
22288;DHT22;11312;51.464;6.968;2022-12-18T16:56:06;1.60;99.90
22288;DHT22;11312;51.464;6.968;2022-12-18T16:58:32;1.80;99.90
22288;DHT22;11312;51.464;6.968;2022-12-18T17:00:57;1.60;99.90
22288;DHT22;11312;51.464;6.968;2022-12-18T17:03:23;1.60;99.90
22288;DHT22;11312;51.464;6.968;2022-12-18T17:05:49;1.60;99.90
22288;DHT22;11312;51.464;6.968;2022-12-18T17:08:14;1.60;99.90
22288;DHT22;11312;51.464;6.968;2022-12-18T17:10:40;1.60;99.90
22288;DHT22;11312;51.464;6.968;2022-12-18T17:13:05;1.60;99.90
22288;DHT22;11312;51.464;6.968;2022-12-18T17:15:34;1.60;99.90
22288;DHT22;11312;51.464;6.968;2022-12-18T17:18:01;1.60;99.90
22288;DHT22;11312;51.464;6.968;2022-12-18T17:20:26;1.60;99.90
22288;DHT22;11312;51.464;6.968;2022-12-18T17:22:52;1.60;99.90
22288;DHT22;11312;51.464;6.968;2022-12-18T17:25:18;1.60;99.90
22288;DHT22;11312;51.464;6.968;2022-12-18T17:27:43;1.80;99.90
22288;DHT22;11312;51.464;6.968;2022-12-18T17:30:10;1.60;99.90
22288;DHT22;11312;51.464;6.968;2022-12-18T17:32:35;1.50;99.90
22288;DHT22;11312;51.464;6.968;2022-12-18T17:35:01;1.50;99.90
22288;DHT22;11312;51.464;6.968;2022-12-18T17:37:27;1.50;99.90
22288;DHT22;11312;51.464;6.968;2022-12-18T17:39:53;1.50;99.90
22288;DHT22;11312;51.464;6.968;2022-12-18T17:42:19;1.40;99.90
22288;DHT22;11312;51.464;6.968;2022-12-18T17:44:44;1.50;99.90
22288;DHT22;11312;51.464;6.968;2022-12-18T17:47:11;1.50;99.90
22288;DHT22;11312;51.464;6.968;2022-12-18T17:49:38;1.50;99.90
22288;DHT22;11312;51.464;6.968;2022-12-18T17:52:04;1.50;99.90
22288;DHT22;11312;51.464;6.968;2022-12-18T17:54:29;1.40;99.90
22288;DHT22;11312;51.464;6.968;2022-12-18T17:56:55;1.40;99.90